Flight Track Log - Related Links

Times and Time Zones

All times are in EDT time to prevent confusion due to time zone crossing. See the VH-OZH flight status page for this flight to view local times or setup timezone preferences in your user account.

Time Position Orientation Groundspeed Altitude Reporting Facility
EDT Latitude Longitude Course Direction KTS MPH feet Rate Location/Type
Sat 01:26:32 AM -25.8271 153.0933 165° South 171 197 8,600  Level Aus ATC (RADAR)
Sat 01:27:07 AM -25.8536 153.1011 165° South 168 193 8,300 -429 Descending Aus ATC (RADAR)
Sat 01:27:42 AM -25.8804 153.1106 162° South 173 199 8,100 -462 Descending Aus ATC (RADAR)
Sat 01:28:12 AM -25.9033 153.1179 164° South 171 197 7,800 -554 Descending Aus ATC (RADAR)
Sat 01:28:47 AM -25.9300 153.1267 163° South 171 197 7,500 -225 Descending Aus ATC (RADAR)
Sat 01:29:32 AM -25.9629 153.1363 165° South 164 189 7,500  Level Aus ATC (RADAR)
Sat 01:30:06 AM -25.9876 153.1423 168° South 157 181 7,500  Level Aus ATC (RADAR)
Sat 01:30:41 AM -26.0129 153.1423 180° South 156 180 7,500  Level Aus ATC (RADAR)
Sat 01:31:17 AM -26.0379 153.1476 169° South 157 181 7,500  Level Aus ATC (RADAR)
Sat 01:31:46 AM -26.0591 153.1511 172° South 155 178 7,500  Level Aus ATC (RADAR)
Sat 01:32:21 AM -26.0840 153.1557 171° South 155 178 7,500  Level Aus ATC (RADAR)
Sat 01:32:56 AM -26.1089 153.1615 168° South 155 178 7,500  Level Aus ATC (RADAR)
Sat 01:33:31 AM -26.1336 153.1656 172° South 155 178 7,500  Level Aus ATC (RADAR)
Sat 01:34:06 AM -26.1593 153.1696 172° South 160 184 7,500  Level Aus ATC (RADAR)
Sat 01:35:01 AM -26.1994 153.1772 170° South 160 184 7,500  Level Aus ATC (RADAR)
Sat 01:35:26 AM -26.2175 153.1808 170° South 159 183 7,500  Level Aus ATC (RADAR)
Sat 01:36:01 AM -26.2429 153.1863 169° South 159 183 7,500  Level Aus ATC (RADAR)
Sat 01:36:46 AM -26.2753 153.1933 169° South 157 181 7,500  Level Aus ATC (RADAR)
Sat 01:37:21 AM -26.3008 153.1985 170° South 159 183 7,500  Level Aus ATC (RADAR)
Sat 01:37:56 AM -26.3259 153.2021 173° South 156 180 7,500  Level Aus ATC (RADAR)
Sat 01:38:31 AM -26.3513 153.2062 172° South 157 181 7,500  Level Aus ATC (RADAR)
Sat 01:39:05 AM -26.3762 153.2121 168° South 155 178 7,500  Level Aus ATC (RADAR)
Sat 01:40:15 AM -26.4254 153.2220 170° South 156 180 7,500  Level Aus ATC (RADAR)
Sat 01:40:40 AM -26.4430 153.2265 167° South 156 180 7,500  Level Aus ATC (RADAR)
Sat 01:41:15 AM -26.4676 153.2296 174° South 152 175 7,500  Level Aus ATC (RADAR)
Sat 01:41:55 AM -26.4950 153.2374 166° South 153 176 7,500  Level Aus ATC (RADAR)
Sat 01:42:30 AM -26.5204 153.2421 170° South 158 182 7,500  Level Aus ATC (RADAR)
Sat 01:43:05 AM -26.5453 153.2457 173° South 156 180 7,500  Level Aus ATC (RADAR)
Sat 01:43:40 AM -26.5712 153.2504 171° South 161 185 7,500  Level Aus ATC (RADAR)
Sat 01:44:15 AM -26.5963 153.2555 170° South 157 181 7,500  Level Aus ATC (RADAR)
Sat 01:45:10 AM -26.6360 153.2649 168° South 159 183 7,500  Level Aus ATC (RADAR)
Sat 01:45:35 AM -26.6539 153.2672 173° South 157 181 7,500  Level Aus ATC (RADAR)
Sat 01:46:10 AM -26.6776 153.2734 167° South 150 173 7,500  Level Aus ATC (RADAR)
Sat 01:46:50 AM -26.7059 153.2772 173° South 152 175 7,500  Level Aus ATC (RADAR)
Sat 01:47:25 AM -26.7306 153.2821 170° South 154 177 7,500  Level Aus ATC (RADAR)
Sat 01:48:00 AM -26.7545 153.2869 170° South 149 171 7,500  Level Aus ATC (RADAR)
Sat 01:48:35 AM -26.7780 153.2937 166° South 149 171 7,500  Level Aus ATC (RADAR)
Sat 01:49:09 AM -26.8014 153.2969 173° South 144 166 7,500  Level Aus ATC (RADAR)
Sat 01:49:54 AM -26.8312 153.3037 168° South 147 169 7,500  Level Aus ATC (RADAR)
Sat 01:50:29 AM -26.8550 153.3072 173° South 146 168 7,500  Level Aus ATC (RADAR)
Sat 01:51:04 AM -26.8764 153.3115 170° South 134 154 7,500  Level Aus ATC (RADAR)
Sat 01:51:49 AM -26.9047 153.3170 170° South 136 157 7,500  Level Aus ATC (RADAR)
Sat 01:52:14 AM -26.9207 153.3195 172° South 139 160 7,500  Level Aus ATC (RADAR)
Sat 01:52:49 AM -26.9431 153.3248 168° South 140 161 7,500  Level Aus ATC (RADAR)
Sat 01:53:29 AM -26.9699 153.3304 169° South 145 167 7,500  Level Aus ATC (RADAR)
Sat 01:54:04 AM -26.9935 153.3346 171° South 148 170 7,500  Level Aus ATC (RADAR)
Sat 01:54:39 AM -27.0164 153.3383 172° South 143 165 7,500  Level Aus ATC (RADAR)
Sat 01:55:29 AM -27.0487 153.3454 169° South 142 163 7,500  Level Aus ATC (RADAR)
Sat 01:55:54 AM -27.0656 153.3477 173° South 144 166 7,500  Level Aus ATC (RADAR)
Sat 01:56:24 AM -27.0856 153.3526 168° South 147 169 7,500  Level Aus ATC (RADAR)
Sat 01:57:09 AM -27.1153 153.3571 172° South 141 162 7,500  Level Aus ATC (RADAR)
Sat 01:57:44 AM -27.1383 153.3616 170° South 144 166 7,500  Level Aus ATC (RADAR)
Sat 01:58:19 AM -27.1617 153.3646 174° South 146 168 7,500  Level Aus ATC (RADAR)
Sat 01:58:49 AM -27.1822 153.3662 176° South 147 169 7,500  Level Aus ATC (RADAR)
Sat 01:59:24 AM -27.2058 153.3707 170° South 146 168 7,500  Level Aus ATC (RADAR)
Sat 02:00:14 AM -27.2391 153.3739 175° South 147 169 7,500 -160 Level Aus ATC (RADAR)
Sat 02:00:39 AM -27.2569 153.3768 172° South 152 175 7,300 -480 Descending Aus ATC (RADAR)
Sat 02:01:04 AM -27.2758 153.3798 172° South 161 185 7,100 -500 Descending Aus ATC (RADAR)
Sat 02:01:39 AM -27.3031 153.3820 176° South 167 192 6,800 -532 Descending Aus ATC (RADAR)
Sat 02:02:23 AM -27.3373 153.3870 173° South 165 190 6,400 -608 Descending Aus ATC (RADAR)
Sat 02:02:58 AM -27.3641 153.3914 172° South 166 191 6,000 -429 Descending Aus ATC (RADAR)
Sat 02:03:33 AM -27.3902 153.3937 176° South 161 185 5,900 -290 Descending Aus ATC (RADAR)
Sat 02:04:00 AM -27.4083 153.3968 171° South 158 182 5,700 -364 Descending Aus ATC (RADAR)
Sat 02:04:39 AM -27.4374 153.4012 172° South 157 181 5,500 -524 Descending Aus ATC (RADAR)
Sat 02:05:43 AM -27.4861 153.4079 173° South 167 192 4,800 -643 Descending Aus ATC (RADAR)
Sat 02:06:03 AM -27.5019 153.4100 173° South 170 196 4,600 -764 Descending Aus ATC (RADAR)
Sat 02:06:38 AM -27.5298 153.4128 175° South 172 198 4,100 -750 Descending Aus ATC (RADAR)
Sat 02:07:23 AM -27.5643 153.4187 171° South 166 191 3,600 -600 Descending Aus ATC (RADAR)
Sat 02:07:58 AM -27.5912 153.4214 175° South 165 190 3,300 -514 Descending Aus ATC (RADAR)
Sat 02:08:33 AM -27.6177 153.4260 171° South 163 188 3,000 -554 Descending Aus ATC (RADAR)
Sat 02:09:03 AM -27.6405 153.4286 174° South 164 189 2,700 -554 Descending Aus ATC (RADAR)
Sat 02:09:38 AM -27.6668 153.4319 174° South 162 186 2,400 -571 Descending Aus ATC (RADAR)
Sat 02:10:27 AM -27.7044 153.4383 172° South 163 188 1,900 -568 Descending Aus ATC (RADAR)
Sat 02:10:52 AM -27.7228 153.4401 175° South 161 185 1,700 -588 Descending Aus ATC (RADAR)
Sat 02:11:18 AM -27.7415 153.4430 172° South 161 185 1,400 -400 Descending Aus ATC (RADAR)
Sat 02:11:52 AM -27.7674 153.4459 174° South 159 183 1,300 -81 Descending Aus ATC (RADAR)
Sat 02:12:32 AM -27.7955 153.4426 186° South 153 176 1,300  Level Aus ATC (RADAR)
Sat 02:13:07 AM -27.8190 153.4399 186° South 146 168 1,300 -80 Level Aus ATC (RADAR)
Sat 02:13:47 AM -27.8459 153.4372 185° South 146 168 1,200  Descending Aus ATC (RADAR)
Sat 02:14:17 AM -27.8662 153.4369 181° South 145 167 1,300  Climbing Aus ATC (RADAR)
Sat 02:14:52 AM -27.8899 153.4364 181° South 146 168 1,200 -133 Descending Aus ATC (RADAR)
Sat 02:15:47 AM -27.9279 153.4327 185° South 150 173 1,100 -225 Descending Aus ATC (RADAR)
Sat 02:16:12 AM -27.9458 153.4331 179° South 153 176 900 -500 Descending Aus ATC (RADAR)
Sat 02:16:47 AM -27.9709 153.4332 180° South 155 178 600 -225 Descending Aus ATC (RADAR)
Sat 02:17:32 AM -28.0024 153.4357 176° South 151 174 600  Level Aus ATC (RADAR)
Sat 02:18:07 AM -28.0268 153.4406 170° South 153 176 600 -114 Level Aus ATC (RADAR)
Sat 02:19:17 AM -28.0756 153.4498 171° South 154 177 400 180 Descending Aus ATC (RADAR)
Sat 02:19:47 AM -28.0949 153.4559 164° South 145 167 900 304 Climbing Aus ATC (RADAR)
Sat 02:20:36 AM -28.1230 153.4699 156° South 139 160 800 -162 Descending Aus ATC (RADAR)
Sat 02:21:01 AM -28.1359 153.4819 141° Southeast 141 162 700 -436 Descending Aus ATC (RADAR)
Sat 02:21:31 AM -28.1475 153.4962 133° Southeast 123 142 400 -600 Descending Aus ATC (RADAR)

Login

Don't have an account? Register now (free) for customized features, flight alerts, and more!